sensor_id;sensor_type;location;lat;lon;timestamp;P1;durP1;ratioP1;P2;durP2;ratioP2
73113;SDS011;61301;51.956;5.876;2024-02-16T00:00:30;5.57;;;1.90;;
73113;SDS011;61301;51.956;5.876;2024-02-16T00:02:56;5.10;;;1.83;;
73113;SDS011;61301;51.956;5.876;2024-02-16T00:05:22;3.38;;;1.80;;
73113;SDS011;61301;51.956;5.876;2024-02-16T00:07:48;3.97;;;1.77;;
73113;SDS011;61301;51.956;5.876;2024-02-16T00:10:14;4.10;;;1.65;;
73113;SDS011;61301;51.956;5.876;2024-02-16T00:12:43;4.63;;;1.88;;
73113;SDS011;61301;51.956;5.876;2024-02-16T00:15:13;5.68;;;1.85;;
73113;SDS011;61301;51.956;5.876;2024-02-16T00:17:39;4.75;;;1.98;;
73113;SDS011;61301;51.956;5.876;2024-02-16T00:20:05;3.42;;;1.88;;
73113;SDS011;61301;51.956;5.876;2024-02-16T00:22:33;3.35;;;1.73;;
73113;SDS011;61301;51.956;5.876;2024-02-16T00:24:59;4.10;;;1.75;;
73113;SDS011;61301;51.956;5.876;2024-02-16T00:27:26;3.38;;;1.80;;
73113;SDS011;61301;51.956;5.876;2024-02-16T00:29:52;5.93;;;1.80;;
73113;SDS011;61301;51.956;5.876;2024-02-16T00:32:18;5.10;;;1.85;;
73113;SDS011;61301;51.956;5.876;2024-02-16T00:34:45;3.92;;;2.10;;
73113;SDS011;61301;51.956;5.876;2024-02-16T00:37:11;4.00;;;1.70;;
73113;SDS011;61301;51.956;5.876;2024-02-16T00:39:40;8.73;;;2.28;;
73113;SDS011;61301;51.956;5.876;2024-02-16T00:42:06;4.68;;;1.80;;
73113;SDS011;61301;51.956;5.876;2024-02-16T00:44:32;3.47;;;1.83;;
73113;SDS011;61301;51.956;5.876;2024-02-16T00:46:58;2.92;;;1.20;;
73113;SDS011;61301;51.956;5.876;2024-02-16T00:49:24;3.53;;;1.40;;
73113;SDS011;61301;51.956;5.876;2024-02-16T00:51:50;2.05;;;1.42;;
73113;SDS011;61301;51.956;5.876;2024-02-16T00:54:17;2.72;;;1.27;;
73113;SDS011;61301;51.956;5.876;2024-02-16T00:56:43;2.95;;;1.52;;
73113;SDS011;61301;51.956;5.876;2024-02-16T00:59:09;2.00;;;1.30;;
73113;SDS011;61301;51.956;5.876;2024-02-16T01:01:35;1.77;;;1.27;;
73113;SDS011;61301;51.956;5.876;2024-02-16T01:04:02;1.92;;;1.23;;
73113;SDS011;61301;51.956;5.876;2024-02-16T01:06:28;1.88;;;1.50;;
73113;SDS011;61301;51.956;5.876;2024-02-16T01:08:54;2.83;;;1.38;;
73113;SDS011;61301;51.956;5.876;2024-02-16T01:11:21;3.63;;;1.85;;
73113;SDS011;61301;51.956;5.876;2024-02-16T01:13:47;2.92;;;1.85;;
73113;SDS011;61301;51.956;5.876;2024-02-16T01:16:13;2.95;;;1.70;;
73113;SDS011;61301;51.956;5.876;2024-02-16T01:18:40;2.83;;;1.10;;
73113;SDS011;61301;51.956;5.876;2024-02-16T01:21:12;1.83;;;1.15;;
73113;SDS011;61301;51.956;5.876;2024-02-16T01:23:38;2.50;;;0.80;;
73113;SDS011;61301;51.956;5.876;2024-02-16T01:26:04;3.15;;;1.10;;
73113;SDS011;61301;51.956;5.876;2024-02-16T01:28:30;3.45;;;1.65;;
73113;SDS011;61301;51.956;5.876;2024-02-16T01:30:56;3.08;;;1.20;;
73113;SDS011;61301;51.956;5.876;2024-02-16T01:33:22;3.58;;;1.50;;
73113;SDS011;61301;51.956;5.876;2024-02-16T01:35:48;2.33;;;1.20;;
73113;SDS011;61301;51.956;5.876;2024-02-16T01:38:14;1.88;;;1.40;;
73113;SDS011;61301;51.956;5.876;2024-02-16T01:40:40;2.22;;;0.90;;
73113;SDS011;61301;51.956;5.876;2024-02-16T01:43:06;1.27;;;0.80;;
73113;SDS011;61301;51.956;5.876;2024-02-16T01:45:32;1.52;;;1.00;;
73113;SDS011;61301;51.956;5.876;2024-02-16T01:47:58;3.03;;;1.20;;
73113;SDS011;61301;51.956;5.876;2024-02-16T01:50:28;3.40;;;1.40;;
73113;SDS011;61301;51.956;5.876;2024-02-16T01:52:55;3.30;;;1.60;;
73113;SDS011;61301;51.956;5.876;2024-02-16T01:55:22;2.30;;;1.52;;
73113;SDS011;61301;51.956;5.876;2024-02-16T01:57:55;2.85;;;1.52;;
73113;SDS011;61301;51.956;5.876;2024-02-16T02:00:23;2.40;;;1.58;;
73113;SDS011;61301;51.956;5.876;2024-02-16T02:02:49;2.80;;;1.40;;
73113;SDS011;61301;51.956;5.876;2024-02-16T02:05:15;3.00;;;1.40;;
73113;SDS011;61301;51.956;5.876;2024-02-16T02:07:42;2.28;;;1.40;;
73113;SDS011;61301;51.956;5.876;2024-02-16T02:10:08;1.90;;;1.05;;
73113;SDS011;61301;51.956;5.876;2024-02-16T02:12:38;2.00;;;0.93;;
73113;SDS011;61301;51.956;5.876;2024-02-16T02:15:05;1.10;;;1.00;;
73113;SDS011;61301;51.956;5.876;2024-02-16T02:17:31;1.95;;;1.15;;
73113;SDS011;61301;51.956;5.876;2024-02-16T02:19:57;2.15;;;1.17;;
73113;SDS011;61301;51.956;5.876;2024-02-16T02:22:23;1.88;;;1.13;;
73113;SDS011;61301;51.956;5.876;2024-02-16T02:24:49;1.30;;;0.82;;
73113;SDS011;61301;51.956;5.876;2024-02-16T02:27:15;0.95;;;0.52;;
73113;SDS011;61301;51.956;5.876;2024-02-16T02:29:42;2.20;;;0.90;;
73113;SDS011;61301;51.956;5.876;2024-02-16T02:32:08;1.50;;;1.00;;
73113;SDS011;61301;51.956;5.876;2024-02-16T02:34:41;1.33;;;0.70;;
73113;SDS011;61301;51.956;5.876;2024-02-16T02:37:07;2.55;;;0.93;;
73113;SDS011;61301;51.956;5.876;2024-02-16T02:39:33;3.20;;;1.10;;
73113;SDS011;61301;51.956;5.876;2024-02-16T02:42:00;1.45;;;1.02;;
73113;SDS011;61301;51.956;5.876;2024-02-16T02:44:26;1.67;;;1.08;;
73113;SDS011;61301;51.956;5.876;2024-02-16T02:46:52;3.05;;;1.63;;
73113;SDS011;61301;51.956;5.876;2024-02-16T02:49:21;2.08;;;1.10;;
73113;SDS011;61301;51.956;5.876;2024-02-16T02:51:47;2.28;;;1.05;;
73113;SDS011;61301;51.956;5.876;2024-02-16T02:54:13;1.40;;;0.70;;
73113;SDS011;61301;51.956;5.876;2024-02-16T02:56:39;4.20;;;1.70;;
73113;SDS011;61301;51.956;5.876;2024-02-16T02:59:05;3.72;;;1.70;;
73113;SDS011;61301;51.956;5.876;2024-02-16T03:01:31;3.15;;;1.30;;
73113;SDS011;61301;51.956;5.876;2024-02-16T03:03:57;3.50;;;1.30;;
73113;SDS011;61301;51.956;5.876;2024-02-16T03:06:25;2.08;;;1.00;;
73113;SDS011;61301;51.956;5.876;2024-02-16T03:08:51;3.30;;;1.63;;
73113;SDS011;61301;51.956;5.876;2024-02-16T03:11:17;1.85;;;1.20;;
73113;SDS011;61301;51.956;5.876;2024-02-16T03:13:46;2.85;;;1.63;;
73113;SDS011;61301;51.956;5.876;2024-02-16T03:16:12;1.85;;;1.35;;
73113;SDS011;61301;51.956;5.876;2024-02-16T03:18:38;2.00;;;1.40;;
73113;SDS011;61301;51.956;5.876;2024-02-16T03:21:04;3.22;;;1.83;;
73113;SDS011;61301;51.956;5.876;2024-02-16T03:23:31;4.07;;;1.88;;
73113;SDS011;61301;51.956;5.876;2024-02-16T03:25:57;2.92;;;1.60;;
73113;SDS011;61301;51.956;5.876;2024-02-16T03:28:23;3.35;;;1.80;;
73113;SDS011;61301;51.956;5.876;2024-02-16T03:30:49;4.70;;;1.42;;
73113;SDS011;61301;51.956;5.876;2024-02-16T03:33:18;3.55;;;1.40;;
73113;SDS011;61301;51.956;5.876;2024-02-16T03:35:44;1.77;;;1.00;;
73113;SDS011;61301;51.956;5.876;2024-02-16T03:38:10;1.52;;;1.33;;
73113;SDS011;61301;51.956;5.876;2024-02-16T03:40:36;2.88;;;1.30;;
73113;SDS011;61301;51.956;5.876;2024-02-16T03:43:02;4.05;;;1.88;;
73113;SDS011;61301;51.956;5.876;2024-02-16T03:45:28;3.88;;;1.73;;
73113;SDS011;61301;51.956;5.876;2024-02-16T03:47:59;2.85;;;1.63;;
73113;SDS011;61301;51.956;5.876;2024-02-16T03:50:25;3.13;;;1.83;;
73113;SDS011;61301;51.956;5.876;2024-02-16T03:52:52;3.78;;;1.58;;
73113;SDS011;61301;51.956;5.876;2024-02-16T03:55:18;2.00;;;1.40;;
73113;SDS011;61301;51.956;5.876;2024-02-16T03:57:45;3.75;;;1.90;;
73113;SDS011;61301;51.956;5.876;2024-02-16T04:00:12;2.58;;;1.63;;
73113;SDS011;61301;51.956;5.876;2024-02-16T04:02:40;2.33;;;1.83;;
73113;SDS011;61301;51.956;5.876;2024-02-16T04:05:06;2.83;;;1.60;;
73113;SDS011;61301;51.956;5.876;2024-02-16T04:07:34;2.40;;;1.65;;
73113;SDS011;61301;51.956;5.876;2024-02-16T04:10:00;3.28;;;1.67;;
73113;SDS011;61301;51.956;5.876;2024-02-16T04:12:26;4.35;;;2.05;;
73113;SDS011;61301;51.956;5.876;2024-02-16T04:14:52;4.75;;;2.10;;
73113;SDS011;61301;51.956;5.876;2024-02-16T04:17:20;3.42;;;1.85;;
73113;SDS011;61301;51.956;5.876;2024-02-16T04:19:46;3.38;;;1.83;;
73113;SDS011;61301;51.956;5.876;2024-02-16T04:22:12;2.47;;;1.65;;
73113;SDS011;61301;51.956;5.876;2024-02-16T04:24:38;4.18;;;1.95;;
73113;SDS011;61301;51.956;5.876;2024-02-16T04:27:04;5.43;;;2.65;;
73113;SDS011;61301;51.956;5.876;2024-02-16T04:29:30;5.28;;;2.22;;
73113;SDS011;61301;51.956;5.876;2024-02-16T04:31:56;3.20;;;1.80;;
73113;SDS011;61301;51.956;5.876;2024-02-16T04:34:22;4.43;;;2.80;;
73113;SDS011;61301;51.956;5.876;2024-02-16T04:36:48;3.17;;;1.80;;
73113;SDS011;61301;51.956;5.876;2024-02-16T04:39:17;4.10;;;1.83;;
73113;SDS011;61301;51.956;5.876;2024-02-16T04:41:45;2.83;;;1.70;;
73113;SDS011;61301;51.956;5.876;2024-02-16T04:44:11;2.70;;;1.80;;
73113;SDS011;61301;51.956;5.876;2024-02-16T04:46:38;4.03;;;2.28;;
73113;SDS011;61301;51.956;5.876;2024-02-16T04:49:04;3.63;;;2.80;;
73113;SDS011;61301;51.956;5.876;2024-02-16T04:51:30;5.45;;;2.17;;
73113;SDS011;61301;51.956;5.876;2024-02-16T04:53:56;4.63;;;2.10;;
73113;SDS011;61301;51.956;5.876;2024-02-16T04:56:22;4.78;;;1.83;;
73113;SDS011;61301;51.956;5.876;2024-02-16T04:58:48;6.47;;;2.35;;
73113;SDS011;61301;51.956;5.876;2024-02-16T05:01:14;6.40;;;2.10;;
73113;SDS011;61301;51.956;5.876;2024-02-16T05:03:40;2.80;;;1.85;;
73113;SDS011;61301;51.956;5.876;2024-02-16T05:06:12;4.60;;;2.67;;
73113;SDS011;61301;51.956;5.876;2024-02-16T05:08:38;4.28;;;2.38;;
73113;SDS011;61301;51.956;5.876;2024-02-16T05:11:04;4.15;;;2.60;;
73113;SDS011;61301;51.956;5.876;2024-02-16T05:13:39;5.43;;;2.25;;
73113;SDS011;61301;51.956;5.876;2024-02-16T05:16:08;4.90;;;2.38;;
73113;SDS011;61301;51.956;5.876;2024-02-16T05:18:35;3.35;;;2.00;;
73113;SDS011;61301;51.956;5.876;2024-02-16T05:21:01;4.82;;;2.30;;
73113;SDS011;61301;51.956;5.876;2024-02-16T05:23:27;3.85;;;2.47;;
73113;SDS011;61301;51.956;5.876;2024-02-16T05:25:53;6.28;;;2.08;;
73113;SDS011;61301;51.956;5.876;2024-02-16T05:28:20;4.72;;;2.85;;
73113;SDS011;61301;51.956;5.876;2024-02-16T05:30:46;2.92;;;2.00;;
73113;SDS011;61301;51.956;5.876;2024-02-16T05:33:12;5.45;;;2.40;;
73113;SDS011;61301;51.956;5.876;2024-02-16T05:35:42;3.85;;;2.30;;
73113;SDS011;61301;51.956;5.876;2024-02-16T05:38:10;3.55;;;2.03;;
73113;SDS011;61301;51.956;5.876;2024-02-16T05:40:47;4.15;;;2.33;;
73113;SDS011;61301;51.956;5.876;2024-02-16T05:43:19;6.13;;;2.40;;
73113;SDS011;61301;51.956;5.876;2024-02-16T05:45:46;3.50;;;1.80;;
73113;SDS011;61301;51.956;5.876;2024-02-16T05:48:12;4.82;;;2.67;;
73113;SDS011;61301;51.956;5.876;2024-02-16T05:50:41;3.28;;;1.95;;
73113;SDS011;61301;51.956;5.876;2024-02-16T05:53:07;3.53;;;2.13;;
73113;SDS011;61301;51.956;5.876;2024-02-16T05:55:36;4.30;;;2.67;;
73113;SDS011;61301;51.956;5.876;2024-02-16T05:58:02;3.95;;;2.47;;
73113;SDS011;61301;51.956;5.876;2024-02-16T06:00:33;5.00;;;2.20;;
73113;SDS011;61301;51.956;5.876;2024-02-16T06:03:00;4.60;;;2.40;;
73113;SDS011;61301;51.956;5.876;2024-02-16T06:05:26;4.90;;;2.08;;
73113;SDS011;61301;51.956;5.876;2024-02-16T06:07:54;4.82;;;2.45;;
73113;SDS011;61301;51.956;5.876;2024-02-16T06:10:22;3.78;;;2.30;;
73113;SDS011;61301;51.956;5.876;2024-02-16T06:12:48;4.72;;;2.13;;
73113;SDS011;61301;51.956;5.876;2024-02-16T06:15:14;3.38;;;2.28;;
73113;SDS011;61301;51.956;5.876;2024-02-16T06:17:40;5.07;;;2.30;;
73113;SDS011;61301;51.956;5.876;2024-02-16T06:20:06;4.72;;;2.28;;
73113;SDS011;61301;51.956;5.876;2024-02-16T06:22:35;4.80;;;2.22;;
73113;SDS011;61301;51.956;5.876;2024-02-16T06:25:02;5.40;;;2.92;;
73113;SDS011;61301;51.956;5.876;2024-02-16T06:27:28;4.00;;;2.22;;
73113;SDS011;61301;51.956;5.876;2024-02-16T06:29:57;4.32;;;2.35;;
73113;SDS011;61301;51.956;5.876;2024-02-16T06:32:23;2.67;;;2.10;;
73113;SDS011;61301;51.956;5.876;2024-02-16T06:34:49;3.95;;;2.20;;
73113;SDS011;61301;51.956;5.876;2024-02-16T06:37:18;5.40;;;2.40;;
73113;SDS011;61301;51.956;5.876;2024-02-16T06:39:43;5.45;;;2.58;;
73113;SDS011;61301;51.956;5.876;2024-02-16T06:42:10;5.55;;;2.80;;
73113;SDS011;61301;51.956;5.876;2024-02-16T06:44:39;8.10;;;3.00;;
73113;SDS011;61301;51.956;5.876;2024-02-16T06:47:06;3.05;;;2.35;;
73113;SDS011;61301;51.956;5.876;2024-02-16T06:49:32;6.90;;;2.83;;
73113;SDS011;61301;51.956;5.876;2024-02-16T06:51:58;5.18;;;2.00;;
73113;SDS011;61301;51.956;5.876;2024-02-16T06:54:24;5.65;;;2.78;;
73113;SDS011;61301;51.956;5.876;2024-02-16T06:56:53;4.95;;;2.88;;
73113;SDS011;61301;51.956;5.876;2024-02-16T06:59:19;2.38;;;2.00;;
73113;SDS011;61301;51.956;5.876;2024-02-16T07:01:45;6.07;;;2.70;;
73113;SDS011;61301;51.956;5.876;2024-02-16T07:04:11;3.80;;;2.30;;
73113;SDS011;61301;51.956;5.876;2024-02-16T07:06:37;4.32;;;2.60;;
73113;SDS011;61301;51.956;5.876;2024-02-16T07:09:04;4.72;;;2.67;;
73113;SDS011;61301;51.956;5.876;2024-02-16T07:11:30;4.65;;;2.22;;
73113;SDS011;61301;51.956;5.876;2024-02-16T07:13:56;4.25;;;2.38;;
73113;SDS011;61301;51.956;5.876;2024-02-16T07:16:22;5.43;;;2.72;;
73113;SDS011;61301;51.956;5.876;2024-02-16T07:18:48;8.15;;;2.65;;
73113;SDS011;61301;51.956;5.876;2024-02-16T07:21:14;5.13;;;2.70;;
73113;SDS011;61301;51.956;5.876;2024-02-16T07:23:40;5.63;;;2.67;;
73113;SDS011;61301;51.956;5.876;2024-02-16T07:26:06;7.93;;;2.78;;
73113;SDS011;61301;51.956;5.876;2024-02-16T07:28:33;4.65;;;2.28;;
73113;SDS011;61301;51.956;5.876;2024-02-16T07:30:59;4.95;;;2.65;;
73113;SDS011;61301;51.956;5.876;2024-02-16T07:33:28;5.68;;;2.88;;
73113;SDS011;61301;51.956;5.876;2024-02-16T07:35:54;5.57;;;2.83;;
73113;SDS011;61301;51.956;5.876;2024-02-16T07:38:20;4.63;;;2.20;;
73113;SDS011;61301;51.956;5.876;2024-02-16T07:40:47;6.40;;;2.80;;
73113;SDS011;61301;51.956;5.876;2024-02-16T07:43:13;7.00;;;3.08;;
73113;SDS011;61301;51.956;5.876;2024-02-16T07:45:39;4.35;;;3.05;;
73113;SDS011;61301;51.956;5.876;2024-02-16T07:48:05;3.63;;;2.15;;
73113;SDS011;61301;51.956;5.876;2024-02-16T07:50:33;5.75;;;3.35;;
73113;SDS011;61301;51.956;5.876;2024-02-16T07:52:59;7.45;;;2.75;;
73113;SDS011;61301;51.956;5.876;2024-02-16T07:55:25;5.40;;;2.50;;
73113;SDS011;61301;51.956;5.876;2024-02-16T07:57:51;6.75;;;2.80;;
73113;SDS011;61301;51.956;5.876;2024-02-16T08:00:17;6.72;;;4.00;;
73113;SDS011;61301;51.956;5.876;2024-02-16T08:02:44;6.25;;;3.72;;
73113;SDS011;61301;51.956;5.876;2024-02-16T08:05:10;4.72;;;3.05;;
73113;SDS011;61301;51.956;5.876;2024-02-16T08:07:38;5.40;;;2.78;;
73113;SDS011;61301;51.956;5.876;2024-02-16T08:10:08;7.10;;;2.83;;
73113;SDS011;61301;51.956;5.876;2024-02-16T08:12:34;7.18;;;2.75;;
73113;SDS011;61301;51.956;5.876;2024-02-16T08:15:04;5.18;;;2.60;;
73113;SDS011;61301;51.956;5.876;2024-02-16T08:17:33;6.10;;;2.83;;
73113;SDS011;61301;51.956;5.876;2024-02-16T08:20:00;6.70;;;2.97;;
73113;SDS011;61301;51.956;5.876;2024-02-16T08:22:26;6.35;;;2.90;;
73113;SDS011;61301;51.956;5.876;2024-02-16T08:24:52;7.43;;;3.00;;
73113;SDS011;61301;51.956;5.876;2024-02-16T08:27:18;5.07;;;2.60;;
73113;SDS011;61301;51.956;5.876;2024-02-16T08:29:44;3.00;;;2.33;;
73113;SDS011;61301;51.956;5.876;2024-02-16T08:32:13;6.68;;;2.80;;
73113;SDS011;61301;51.956;5.876;2024-02-16T08:34:39;6.50;;;3.13;;
73113;SDS011;61301;51.956;5.876;2024-02-16T08:37:05;7.88;;;2.78;;
73113;SDS011;61301;51.956;5.876;2024-02-16T08:39:33;6.72;;;3.53;;
73113;SDS011;61301;51.956;5.876;2024-02-16T08:42:00;8.52;;;3.35;;
73113;SDS011;61301;51.956;5.876;2024-02-16T08:44:26;7.55;;;3.55;;
73113;SDS011;61301;51.956;5.876;2024-02-16T08:46:52;6.45;;;3.40;;
73113;SDS011;61301;51.956;5.876;2024-02-16T08:49:20;5.03;;;2.72;;
73113;SDS011;61301;51.956;5.876;2024-02-16T08:51:46;5.45;;;2.50;;
73113;SDS011;61301;51.956;5.876;2024-02-16T08:54:13;4.78;;;3.00;;
73113;SDS011;61301;51.956;5.876;2024-02-16T08:56:39;4.40;;;3.05;;
73113;SDS011;61301;51.956;5.876;2024-02-16T08:59:05;4.95;;;2.85;;
73113;SDS011;61301;51.956;5.876;2024-02-16T09:01:34;4.70;;;2.67;;
73113;SDS011;61301;51.956;5.876;2024-02-16T09:04:04;5.78;;;3.13;;
73113;SDS011;61301;51.956;5.876;2024-02-16T09:06:31;5.57;;;3.20;;
73113;SDS011;61301;51.956;5.876;2024-02-16T09:08:57;6.97;;;3.15;;
73113;SDS011;61301;51.956;5.876;2024-02-16T09:11:23;7.95;;;3.60;;
73113;SDS011;61301;51.956;5.876;2024-02-16T09:13:49;8.00;;;3.40;;
73113;SDS011;61301;51.956;5.876;2024-02-16T09:16:16;7.93;;;3.38;;
73113;SDS011;61301;51.956;5.876;2024-02-16T09:18:42;7.25;;;3.08;;
73113;SDS011;61301;51.956;5.876;2024-02-16T09:21:08;5.70;;;3.08;;
73113;SDS011;61301;51.956;5.876;2024-02-16T09:23:36;6.07;;;3.30;;
73113;SDS011;61301;51.956;5.876;2024-02-16T09:26:02;4.93;;;3.38;;
73113;SDS011;61301;51.956;5.876;2024-02-16T09:28:29;6.03;;;3.58;;
73113;SDS011;61301;51.956;5.876;2024-02-16T09:30:55;5.35;;;3.45;;
73113;SDS011;61301;51.956;5.876;2024-02-16T09:33:22;7.57;;;3.45;;
73113;SDS011;61301;51.956;5.876;2024-02-16T09:35:50;5.57;;;3.40;;
73113;SDS011;61301;51.956;5.876;2024-02-16T09:38:16;6.88;;;4.18;;
73113;SDS011;61301;51.956;5.876;2024-02-16T09:40:43;5.50;;;3.63;;
73113;SDS011;61301;51.956;5.876;2024-02-16T09:43:09;6.38;;;3.50;;
73113;SDS011;61301;51.956;5.876;2024-02-16T09:45:36;7.43;;;3.80;;
73113;SDS011;61301;51.956;5.876;2024-02-16T09:48:02;5.72;;;3.45;;
73113;SDS011;61301;51.956;5.876;2024-02-16T09:50:34;7.82;;;4.70;;
73113;SDS011;61301;51.956;5.876;2024-02-16T09:53:00;8.00;;;3.97;;
73113;SDS011;61301;51.956;5.876;2024-02-16T09:55:31;6.32;;;3.63;;
73113;SDS011;61301;51.956;5.876;2024-02-16T09:57:59;10.02;;;3.95;;
73113;SDS011;61301;51.956;5.876;2024-02-16T10:00:26;5.50;;;3.50;;
73113;SDS011;61301;51.956;5.876;2024-02-16T10:02:52;5.40;;;3.88;;
73113;SDS011;61301;51.956;5.876;2024-02-16T10:05:21;6.43;;;3.50;;
73113;SDS011;61301;51.956;5.876;2024-02-16T10:07:47;7.53;;;4.05;;
73113;SDS011;61301;51.956;5.876;2024-02-16T10:10:20;6.63;;;3.67;;
73113;SDS011;61301;51.956;5.876;2024-02-16T10:13:00;7.55;;;3.63;;
73113;SDS011;61301;51.956;5.876;2024-02-16T10:15:34;7.03;;;3.95;;
73113;SDS011;61301;51.956;5.876;2024-02-16T10:18:03;6.55;;;3.20;;
73113;SDS011;61301;51.956;5.876;2024-02-16T10:20:34;7.95;;;3.85;;
73113;SDS011;61301;51.956;5.876;2024-02-16T10:25:37;6.70;;;3.53;;
73113;SDS011;61301;51.956;5.876;2024-02-16T10:28:05;7.10;;;3.75;;
73113;SDS011;61301;51.956;5.876;2024-02-16T10:30:36;9.48;;;4.20;;
73113;SDS011;61301;51.956;5.876;2024-02-16T10:33:08;8.35;;;4.18;;
73113;SDS011;61301;51.956;5.876;2024-02-16T10:35:35;6.88;;;3.80;;
73113;SDS011;61301;51.956;5.876;2024-02-16T10:38:02;5.82;;;4.20;;
73113;SDS011;61301;51.956;5.876;2024-02-16T10:40:39;7.00;;;4.40;;
73113;SDS011;61301;51.956;5.876;2024-02-16T10:43:06;8.40;;;5.50;;
73113;SDS011;61301;51.956;5.876;2024-02-16T10:45:34;7.38;;;4.53;;
73113;SDS011;61301;51.956;5.876;2024-02-16T10:48:02;8.10;;;4.88;;
73113;SDS011;61301;51.956;5.876;2024-02-16T10:50:28;9.68;;;4.45;;
73113;SDS011;61301;51.956;5.876;2024-02-16T10:52:55;8.30;;;4.57;;
73113;SDS011;61301;51.956;5.876;2024-02-16T10:55:22;8.63;;;4.28;;
73113;SDS011;61301;51.956;5.876;2024-02-16T10:57:49;5.78;;;4.13;;
73113;SDS011;61301;51.956;5.876;2024-02-16T11:00:16;12.30;;;4.38;;
73113;SDS011;61301;51.956;5.876;2024-02-16T11:05:31;11.77;;;4.90;;
73113;SDS011;61301;51.956;5.876;2024-02-16T11:08:17;8.52;;;4.63;;
73113;SDS011;61301;51.956;5.876;2024-02-16T11:10:56;7.50;;;4.68;;
73113;SDS011;61301;51.956;5.876;2024-02-16T11:13:27;7.18;;;4.97;;
73113;SDS011;61301;51.956;5.876;2024-02-16T11:16:05;8.18;;;4.97;;
73113;SDS011;61301;51.956;5.876;2024-02-16T11:18:36;7.65;;;5.03;;
73113;SDS011;61301;51.956;5.876;2024-02-16T11:21:11;10.00;;;5.03;;
73113;SDS011;61301;51.956;5.876;2024-02-16T11:23:37;8.73;;;5.63;;
73113;SDS011;61301;51.956;5.876;2024-02-16T11:26:06;8.45;;;4.93;;
73113;SDS011;61301;51.956;5.876;2024-02-16T11:28:40;6.50;;;5.30;;
73113;SDS011;61301;51.956;5.876;2024-02-16T11:31:07;8.45;;;4.75;;
73113;SDS011;61301;51.956;5.876;2024-02-16T11:33:33;8.20;;;5.88;;
73113;SDS011;61301;51.956;5.876;2024-02-16T11:36:00;8.32;;;5.93;;
73113;SDS011;61301;51.956;5.876;2024-02-16T11:38:30;13.85;;;6.15;;
73113;SDS011;61301;51.956;5.876;2024-02-16T11:40:58;13.30;;;6.57;;
73113;SDS011;61301;51.956;5.876;2024-02-16T11:43:26;10.52;;;5.95;;
73113;SDS011;61301;51.956;5.876;2024-02-16T11:45:52;10.93;;;6.78;;
73113;SDS011;61301;51.956;5.876;2024-02-16T11:48:22;8.05;;;6.40;;
73113;SDS011;61301;51.956;5.876;2024-02-16T11:50:58;13.70;;;6.80;;
73113;SDS011;61301;51.956;5.876;2024-02-16T11:53:25;9.20;;;7.20;;
73113;SDS011;61301;51.956;5.876;2024-02-16T11:55:51;10.20;;;6.60;;
73113;SDS011;61301;51.956;5.876;2024-02-16T11:58:17;12.77;;;6.88;;
73113;SDS011;61301;51.956;5.876;2024-02-16T12:00:46;9.10;;;7.00;;
73113;SDS011;61301;51.956;5.876;2024-02-16T12:05:52;8.32;;;6.53;;
73113;SDS011;61301;51.956;5.876;2024-02-16T12:08:22;8.05;;;6.53;;
73113;SDS011;61301;51.956;5.876;2024-02-16T12:10:49;7.50;;;6.07;;
73113;SDS011;61301;51.956;5.876;2024-02-16T12:13:17;9.82;;;6.28;;
73113;SDS011;61301;51.956;5.876;2024-02-16T12:15:48;7.32;;;5.18;;
73113;SDS011;61301;51.956;5.876;2024-02-16T12:23:23;6.30;;;5.70;;
73113;SDS011;61301;51.956;5.876;2024-02-16T12:25:49;6.78;;;5.70;;
73113;SDS011;61301;51.956;5.876;2024-02-16T12:28:15;9.27;;;5.63;;
73113;SDS011;61301;51.956;5.876;2024-02-16T12:30:44;10.88;;;5.68;;
73113;SDS011;61301;51.956;5.876;2024-02-16T12:33:10;8.07;;;4.75;;
73113;SDS011;61301;51.956;5.876;2024-02-16T12:35:36;6.00;;;5.22;;
73113;SDS011;61301;51.956;5.876;2024-02-16T12:38:02;6.78;;;5.53;;
73113;SDS011;61301;51.956;5.876;2024-02-16T12:40:31;7.88;;;5.93;;
73113;SDS011;61301;51.956;5.876;2024-02-16T12:42:57;6.57;;;5.40;;
73113;SDS011;61301;51.956;5.876;2024-02-16T12:45:23;7.70;;;5.20;;
73113;SDS011;61301;51.956;5.876;2024-02-16T12:47:50;7.18;;;5.22;;
73113;SDS011;61301;51.956;5.876;2024-02-16T12:50:16;7.07;;;4.68;;
73113;SDS011;61301;51.956;5.876;2024-02-16T12:52:45;8.82;;;5.78;;
73113;SDS011;61301;51.956;5.876;2024-02-16T12:55:11;5.53;;;5.00;;
73113;SDS011;61301;51.956;5.876;2024-02-16T12:57:37;5.90;;;4.97;;
73113;SDS011;61301;51.956;5.876;2024-02-16T13:00:04;6.40;;;5.57;;
73113;SDS011;61301;51.956;5.876;2024-02-16T13:02:30;6.75;;;5.28;;
73113;SDS011;61301;51.956;5.876;2024-02-16T13:04:56;6.00;;;5.35;;
73113;SDS011;61301;51.956;5.876;2024-02-16T13:07:23;8.32;;;5.82;;
73113;SDS011;61301;51.956;5.876;2024-02-16T13:09:49;6.57;;;5.97;;
73113;SDS011;61301;51.956;5.876;2024-02-16T13:12:16;7.15;;;5.22;;
73113;SDS011;61301;51.956;5.876;2024-02-16T13:14:43;7.68;;;6.07;;
73113;SDS011;61301;51.956;5.876;2024-02-16T13:17:08;7.05;;;6.25;;
73113;SDS011;61301;51.956;5.876;2024-02-16T13:19:34;8.55;;;6.35;;
73113;SDS011;61301;51.956;5.876;2024-02-16T13:22:00;7.78;;;5.93;;
73113;SDS011;61301;51.956;5.876;2024-02-16T13:24:26;7.35;;;6.53;;
73113;SDS011;61301;51.956;5.876;2024-02-16T13:26:52;10.65;;;7.57;;
73113;SDS011;61301;51.956;5.876;2024-02-16T13:29:18;9.32;;;8.20;;
73113;SDS011;61301;51.956;5.876;2024-02-16T13:31:44;10.30;;;8.00;;
73113;SDS011;61301;51.956;5.876;2024-02-16T13:34:11;8.32;;;7.43;;
73113;SDS011;61301;51.956;5.876;2024-02-16T13:36:37;10.93;;;8.73;;
73113;SDS011;61301;51.956;5.876;2024-02-16T13:39:03;8.35;;;7.15;;
73113;SDS011;61301;51.956;5.876;2024-02-16T13:41:29;8.48;;;6.93;;
73113;SDS011;61301;51.956;5.876;2024-02-16T13:43:55;7.10;;;6.40;;
73113;SDS011;61301;51.956;5.876;2024-02-16T13:46:21;7.32;;;6.38;;
73113;SDS011;61301;51.956;5.876;2024-02-16T13:48:47;8.43;;;7.30;;
73113;SDS011;61301;51.956;5.876;2024-02-16T13:51:13;7.70;;;6.22;;
73113;SDS011;61301;51.956;5.876;2024-02-16T13:53:39;7.88;;;6.82;;
73113;SDS011;61301;51.956;5.876;2024-02-16T13:56:05;7.47;;;6.65;;
73113;SDS011;61301;51.956;5.876;2024-02-16T13:58:31;6.43;;;5.50;;
73113;SDS011;61301;51.956;5.876;2024-02-16T14:01:00;6.07;;;5.07;;
73113;SDS011;61301;51.956;5.876;2024-02-16T14:03:36;5.22;;;4.55;;
73113;SDS011;61301;51.956;5.876;2024-02-16T14:06:02;6.35;;;5.00;;
73113;SDS011;61301;51.956;5.876;2024-02-16T14:08:28;5.10;;;4.60;;
73113;SDS011;61301;51.956;5.876;2024-02-16T14:10:56;5.45;;;4.20;;
73113;SDS011;61301;51.956;5.876;2024-02-16T14:13:22;5.95;;;4.68;;
73113;SDS011;61301;51.956;5.876;2024-02-16T14:15:50;5.07;;;4.57;;
73113;SDS011;61301;51.956;5.876;2024-02-16T14:18:16;4.85;;;4.13;;
73113;SDS011;61301;51.956;5.876;2024-02-16T14:20:42;5.00;;;3.40;;
73113;SDS011;61301;51.956;5.876;2024-02-16T14:23:08;4.43;;;3.80;;
73113;SDS011;61301;51.956;5.876;2024-02-16T14:25:36;4.10;;;3.25;;
73113;SDS011;61301;51.956;5.876;2024-02-16T14:28:06;4.43;;;3.90;;
73113;SDS011;61301;51.956;5.876;2024-02-16T14:30:33;4.40;;;3.58;;
73113;SDS011;61301;51.956;5.876;2024-02-16T14:32:59;4.88;;;3.05;;
73113;SDS011;61301;51.956;5.876;2024-02-16T14:35:25;3.55;;;3.17;;
73113;SDS011;61301;51.956;5.876;2024-02-16T14:37:51;4.70;;;2.95;;
73113;SDS011;61301;51.956;5.876;2024-02-16T14:40:17;2.40;;;2.08;;
73113;SDS011;61301;51.956;5.876;2024-02-16T14:42:43;2.80;;;2.03;;
73113;SDS011;61301;51.956;5.876;2024-02-16T14:45:09;2.83;;;2.13;;
73113;SDS011;61301;51.956;5.876;2024-02-16T14:47:45;2.72;;;2.25;;
73113;SDS011;61301;51.956;5.876;2024-02-16T14:50:14;2.08;;;1.88;;
73113;SDS011;61301;51.956;5.876;2024-02-16T14:52:41;1.75;;;1.27;;
73113;SDS011;61301;51.956;5.876;2024-02-16T14:55:07;2.40;;;2.00;;
73113;SDS011;61301;51.956;5.876;2024-02-16T14:57:44;2.17;;;1.65;;
73113;SDS011;61301;51.956;5.876;2024-02-16T15:00:11;2.10;;;1.90;;